createdAt,value
2018-03-25T00:01:27.596Z,84.83
2018-03-25T00:04:33.128Z,84.90
2018-03-25T00:07:38.742Z,84.89
2018-03-25T00:10:44.339Z,84.85
2018-03-25T00:13:49.901Z,84.89
2018-03-25T00:16:55.440Z,84.90
2018-03-25T00:20:01.004Z,84.88
2018-03-25T00:23:06.515Z,84.85
2018-03-25T00:26:12.088Z,84.88
2018-03-25T00:29:17.598Z,84.95
2018-03-25T00:32:23.146Z,85.00
2018-03-25T00:35:28.704Z,84.96
2018-03-25T00:38:34.203Z,84.84
2018-03-25T00:41:39.760Z,84.91
2018-03-25T00:44:45.253Z,84.97
2018-03-25T00:47:50.794Z,84.91
2018-03-25T00:50:56.304Z,85.03
2018-03-25T00:54:01.854Z,84.98
2018-03-25T00:57:07.358Z,84.91
2018-03-25T01:00:12.912Z,85.19
2018-03-25T01:03:18.166Z,84.88
2018-03-25T01:06:23.818Z,85.06
2018-03-25T01:09:29.337Z,84.97
2018-03-25T01:12:34.905Z,85.19
2018-03-25T01:15:51.519Z,85.05
2018-03-25T01:18:56.789Z,85.03
2018-03-25T01:22:02.294Z,84.98
2018-03-25T01:25:07.867Z,85.19
2018-03-25T01:28:13.472Z,85.11
2018-03-25T01:31:19.057Z,85.00
2018-03-25T01:34:24.655Z,85.16
2018-03-25T01:37:30.217Z,85.06
2018-03-25T01:40:35.785Z,85.12
2018-03-25T01:43:41.303Z,85.46
2018-03-25T01:46:46.871Z,85.37
2018-03-25T01:49:52.373Z,85.15
2018-03-25T01:52:57.919Z,85.16
2018-03-25T01:56:03.422Z,85.20
2018-03-25T01:59:08.980Z,85.30
2018-03-25T02:02:14.510Z,85.32
2018-03-25T02:05:20.044Z,85.19
2018-03-25T02:08:25.608Z,85.29
2018-03-25T02:11:31.161Z,85.21
2018-03-25T02:14:36.656Z,85.38
2018-03-25T02:17:42.201Z,85.23
2018-03-25T02:20:47.713Z,85.26
2018-03-25T02:23:53.308Z,85.35
2018-03-25T02:26:58.845Z,85.33
2018-03-25T02:30:03.866Z,85.19
2018-03-25T02:33:09.438Z,85.13
2018-03-25T02:36:14.974Z,84.97
2018-03-25T02:39:20.522Z,85.01
2018-03-25T02:42:26.169Z,85.10
2018-03-25T02:45:31.681Z,85.33
2018-03-25T02:48:37.279Z,85.12
2018-03-25T02:51:42.637Z,85.09
2018-03-25T02:54:48.148Z,85.38
2018-03-25T02:57:53.740Z,85.26
2018-03-25T03:00:59.319Z,85.32
2018-03-25T03:04:04.922Z,85.24
2018-03-25T03:07:10.482Z,85.30
2018-03-25T03:10:16.002Z,85.35
2018-03-25T03:13:21.573Z,85.34
2018-03-25T03:16:27.097Z,85.22
2018-03-25T03:19:32.636Z,85.20
2018-03-25T03:22:38.144Z,85.31
2018-03-25T03:25:43.701Z,85.17
2018-03-25T03:28:49.221Z,85.29
2018-03-25T03:31:54.772Z,85.24
2018-03-25T03:35:00.322Z,85.28
2018-03-25T03:38:05.842Z,85.31
2018-03-25T03:41:11.417Z,85.25
2018-03-25T03:44:17.028Z,85.31
2018-03-25T03:47:22.562Z,85.25
2018-03-25T03:50:29.081Z,85.30
2018-03-25T03:53:36.323Z,85.50
2018-03-25T03:56:41.953Z,85.45
2018-03-25T03:59:47.487Z,85.27
2018-03-25T04:02:52.988Z,85.14
2018-03-25T04:05:58.587Z,85.14
2018-03-25T04:09:04.002Z,85.13
2018-03-25T04:12:09.743Z,85.26
2018-03-25T04:15:15.296Z,85.17
2018-03-25T04:18:20.853Z,85.17
2018-03-25T04:21:26.360Z,85.18
2018-03-25T04:24:31.918Z,85.25
2018-03-25T04:27:37.600Z,85.26
2018-03-25T04:30:43.342Z,85.33
2018-03-25T04:33:48.881Z,85.40
2018-03-25T04:36:54.436Z,85.51
2018-03-25T04:40:00.001Z,85.35
2018-03-25T04:43:05.565Z,85.46
2018-03-25T04:46:11.206Z,85.40
2018-03-25T04:49:16.809Z,85.27
2018-03-25T04:52:22.316Z,85.29
2018-03-25T04:55:27.882Z,85.45
2018-03-25T04:58:33.639Z,85.51
2018-03-25T05:01:39.224Z,85.62
2018-03-25T05:04:44.738Z,85.47
2018-03-25T05:07:50.298Z,85.57
2018-03-25T05:10:55.651Z,85.62
2018-03-25T05:14:01.204Z,85.49
2018-03-25T05:17:06.769Z,85.51
2018-03-25T05:20:12.348Z,85.46
2018-03-25T05:23:23.510Z,85.30
2018-03-25T05:26:30.541Z,85.33
2018-03-25T05:29:35.854Z,85.46
2018-03-25T05:32:41.407Z,85.45
2018-03-25T05:35:47.696Z,85.43
2018-03-25T05:38:58.624Z,85.42
2018-03-25T05:42:04.662Z,85.55
2018-03-25T05:45:13.792Z,85.47
2018-03-25T05:48:20.845Z,85.41
2018-03-25T05:51:27.555Z,85.46
2018-03-25T05:54:37.068Z,85.72
2018-03-25T05:57:45.091Z,85.66
2018-03-25T06:00:54.663Z,85.62
2018-03-25T06:04:01.090Z,85.62
2018-03-25T06:07:06.650Z,85.56
2018-03-25T06:10:14.514Z,85.65
2018-03-25T06:13:22.508Z,85.76
2018-03-25T06:16:29.028Z,85.64
2018-03-25T06:19:35.526Z,85.58
2018-03-25T06:22:43.826Z,85.58
2018-03-25T06:25:49.805Z,85.55
2018-03-25T06:28:56.451Z,85.51
2018-03-25T06:32:03.342Z,85.51
2018-03-25T06:35:09.766Z,85.49
2018-03-25T06:38:17.189Z,85.56
2018-03-25T06:41:23.297Z,85.52
2018-03-25T06:44:29.016Z,85.44
2018-03-25T06:47:34.682Z,85.51
2018-03-25T06:50:40.270Z,85.46
2018-03-25T06:53:45.785Z,85.46
2018-03-25T06:56:51.346Z,85.46
2018-03-25T06:59:56.881Z,85.46
2018-03-25T07:03:02.434Z,85.51
2018-03-25T07:06:07.958Z,85.51
2018-03-25T07:09:13.529Z,85.45
2018-03-25T07:12:19.097Z,85.53
2018-03-25T07:15:24.734Z,85.53
2018-03-25T07:18:33.241Z,85.48
2018-03-25T07:21:55.273Z,85.44
2018-03-25T07:25:01.998Z,85.46
2018-03-25T07:28:07.614Z,85.43
2018-03-25T07:31:13.251Z,85.42
2018-03-25T07:34:18.918Z,85.47
2018-03-25T07:37:24.490Z,85.35
2018-03-25T07:40:33.224Z,85.37
2018-03-25T07:43:38.949Z,85.37
2018-03-25T07:46:44.566Z,85.38
2018-03-25T07:49:50.187Z,85.38
2018-03-25T07:52:56.058Z,85.30
2018-03-25T07:56:03.193Z,85.17
2018-03-25T07:59:14.374Z,85.18
2018-03-25T08:02:19.890Z,85.11
2018-03-25T08:05:25.484Z,85.09
2018-03-25T08:08:31.066Z,85.12
2018-03-25T08:11:36.622Z,85.00
2018-03-25T08:14:51.126Z,84.94
2018-03-25T08:17:57.086Z,84.92
2018-03-25T08:21:02.634Z,84.89
2018-03-25T08:24:08.356Z,84.86
2018-03-25T08:27:13.921Z,84.82
2018-03-25T08:30:19.620Z,84.81
2018-03-25T08:33:33.710Z,84.76
2018-03-25T08:36:40.926Z,84.76
2018-03-25T08:39:46.552Z,84.81
2018-03-25T08:42:52.176Z,84.74
2018-03-25T08:45:57.701Z,84.69
2018-03-25T08:49:03.903Z,84.71
2018-03-25T08:52:09.941Z,84.64
2018-03-25T08:55:15.510Z,84.61
2018-03-25T08:58:21.089Z,84.71
2018-03-25T09:01:26.652Z,84.61
2018-03-25T09:04:32.266Z,84.57
2018-03-25T09:07:37.843Z,84.56
2018-03-25T09:10:43.419Z,84.57
2018-03-25T09:13:48.979Z,84.53
2018-03-25T09:16:54.561Z,84.48
2018-03-25T09:20:00.206Z,84.50
2018-03-25T09:23:05.882Z,84.43
2018-03-25T09:26:11.620Z,84.40
2018-03-25T09:29:17.204Z,84.40
2018-03-25T09:32:22.846Z,84.59
2018-03-25T09:35:28.397Z,84.41
2018-03-25T09:38:34.450Z,84.33
2018-03-25T09:41:40.042Z,84.36
2018-03-25T09:44:45.610Z,84.29
2018-03-25T09:47:51.261Z,84.22
2018-03-25T09:50:56.837Z,84.21
2018-03-25T09:54:02.422Z,84.17
2018-03-25T09:57:09.312Z,84.16
2018-03-25T10:00:14.750Z,84.19
2018-03-25T10:03:25.654Z,84.10
2018-03-25T10:06:31.492Z,84.01
2018-03-25T10:09:37.063Z,84.15
2018-03-25T10:12:50.731Z,83.96
2018-03-25T10:16:10.687Z,83.83
2018-03-25T10:19:25.349Z,83.83
2018-03-25T10:22:38.231Z,83.70
2018-03-25T10:25:51.278Z,83.66
2018-03-25T10:29:01.485Z,83.88
2018-03-25T10:32:13.530Z,83.72
2018-03-25T10:35:21.825Z,83.64
2018-03-25T10:38:32.051Z,83.75
2018-03-25T10:41:38.040Z,83.44
2018-03-25T10:44:47.367Z,83.27
2018-03-25T10:47:57.264Z,83.38
2018-03-25T10:51:04.760Z,83.30
2018-03-25T10:54:10.310Z,83.17
2018-03-25T10:57:15.942Z,83.20
2018-03-25T11:00:21.634Z,82.97
2018-03-25T11:03:27.322Z,83.32
2018-03-25T11:06:32.987Z,83.10
2018-03-25T11:09:38.553Z,83.08
2018-03-25T11:12:44.082Z,82.62
2018-03-25T11:15:49.638Z,81.68
2018-03-25T11:18:55.164Z,82.48
2018-03-25T11:22:00.574Z,82.84
2018-03-25T11:25:06.179Z,82.65
2018-03-25T11:28:11.744Z,82.39
2018-03-25T11:31:17.389Z,82.40
2018-03-25T11:34:22.967Z,82.19
2018-03-25T11:37:28.625Z,81.97
2018-03-25T11:40:34.452Z,82.36
2018-03-25T11:43:40.007Z,81.88
2018-03-25T11:46:45.610Z,81.77
2018-03-25T11:49:51.189Z,81.99
2018-03-25T11:52:56.789Z,81.96
2018-03-25T11:56:02.362Z,81.40
2018-03-25T11:59:07.925Z,80.62
2018-03-25T12:02:13.480Z,81.65
2018-03-25T12:05:19.320Z,80.95
2018-03-25T12:08:24.886Z,81.07
2018-03-25T12:11:30.414Z,81.17
2018-03-25T12:14:36.004Z,80.75
2018-03-25T12:17:41.530Z,80.81
2018-03-25T12:20:47.101Z,80.75
2018-03-25T12:23:52.632Z,79.17
2018-03-25T12:26:58.194Z,80.67
2018-03-25T12:30:03.814Z,80.65
2018-03-25T12:33:09.383Z,80.71
2018-03-25T12:36:15.183Z,80.56
2018-03-25T12:39:20.755Z,80.89
2018-03-25T12:42:26.314Z,79.96
2018-03-25T12:45:32.223Z,79.65
2018-03-25T12:48:37.812Z,80.86
2018-03-25T12:51:43.349Z,80.79
2018-03-25T12:54:48.937Z,79.33
2018-03-25T12:57:54.576Z,79.29
2018-03-25T13:01:00.178Z,79.77
2018-03-25T13:04:05.564Z,79.46
2018-03-25T13:07:11.162Z,79.65
2018-03-25T13:10:16.693Z,78.80
2018-03-25T13:13:22.252Z,79.16
2018-03-25T13:16:27.831Z,77.03
2018-03-25T13:19:33.404Z,77.74
2018-03-25T13:22:38.947Z,77.30
2018-03-25T13:25:44.555Z,78.04
2018-03-25T13:28:50.170Z,78.44
2018-03-25T13:31:55.757Z,78.46
2018-03-25T13:35:01.370Z,78.65
2018-03-25T13:38:06.890Z,78.65
2018-03-25T13:41:12.466Z,77.41
2018-03-25T13:44:18.103Z,77.20
2018-03-25T13:47:23.703Z,77.77
2018-03-25T13:50:31.753Z,77.96
2018-03-25T13:53:37.324Z,76.72
2018-03-25T13:56:42.838Z,77.82
2018-03-25T13:59:48.413Z,77.56
2018-03-25T14:02:53.970Z,77.83
2018-03-25T14:05:59.530Z,78.20
2018-03-25T14:09:04.630Z,78.77
2018-03-25T14:12:10.217Z,78.39
2018-03-25T14:15:15.766Z,78.19
2018-03-25T14:18:21.327Z,78.64
2018-03-25T14:21:26.970Z,78.46
2018-03-25T14:24:32.501Z,78.29
2018-03-25T14:27:38.071Z,78.19
2018-03-25T14:30:43.662Z,78.57
2018-03-25T14:33:49.189Z,78.05
2018-03-25T14:36:59.493Z,77.59
2018-03-25T14:40:05.316Z,78.51
2018-03-25T14:43:20.979Z,78.54
2018-03-25T14:46:28.589Z,78.31
2018-03-25T14:49:34.363Z,78.21
2018-03-25T14:52:39.930Z,78.26
2018-03-25T14:56:09.289Z,78.24
2018-03-25T14:59:15.000Z,78.64
2018-03-25T15:02:20.575Z,78.83
2018-03-25T15:05:26.204Z,78.83
2018-03-25T15:08:34.237Z,78.92
2018-03-25T15:11:39.810Z,78.46
2018-03-25T15:14:45.395Z,78.62
2018-03-25T15:17:51.177Z,78.73
2018-03-25T15:20:56.773Z,78.45
2018-03-25T15:24:02.366Z,78.90
2018-03-25T15:27:07.885Z,78.93
2018-03-25T15:30:13.205Z,78.83
2018-03-25T15:33:18.727Z,79.10
2018-03-25T15:36:24.354Z,79.08
2018-03-25T15:39:29.909Z,79.00
2018-03-25T15:42:35.558Z,78.67
2018-03-25T15:45:44.324Z,78.50
2018-03-25T15:48:50.942Z,78.99
2018-03-25T15:51:56.578Z,79.08
2018-03-25T15:55:02.148Z,79.29
2018-03-25T15:58:07.759Z,79.22
2018-03-25T16:01:13.762Z,79.48
2018-03-25T16:04:19.768Z,79.48
2018-03-25T16:07:26.198Z,79.58
2018-03-25T16:10:35.181Z,79.45
2018-03-25T16:13:42.615Z,79.84
2018-03-25T16:16:49.562Z,79.91
2018-03-25T16:19:55.396Z,79.85
2018-03-25T16:23:00.923Z,79.92
2018-03-25T16:26:07.632Z,80.02
2018-03-25T16:29:13.520Z,79.99
2018-03-25T16:32:19.868Z,80.02
2018-03-25T16:35:33.075Z,79.95
2018-03-25T16:38:52.533Z,79.86
2018-03-25T16:42:12.861Z,80.00
2018-03-25T16:45:29.503Z,80.12
2018-03-25T16:48:42.447Z,79.94
2018-03-25T16:51:52.835Z,80.13
2018-03-25T16:55:03.033Z,80.08
2018-03-25T16:58:13.756Z,80.04
2018-03-25T17:01:29.880Z,80.19
2018-03-25T17:04:43.145Z,80.27
2018-03-25T17:07:54.517Z,80.25
2018-03-25T17:11:08.851Z,80.24
2018-03-25T17:14:23.187Z,80.33
2018-03-25T17:17:38.000Z,80.33
2018-03-25T17:20:51.729Z,80.36
2018-03-25T17:24:06.311Z,80.35
2018-03-25T17:27:21.587Z,80.32
2018-03-25T17:30:28.321Z,80.39
2018-03-25T17:33:37.283Z,80.59
2018-03-25T17:36:44.390Z,80.60
2018-03-25T17:39:57.915Z,80.67
2018-03-25T17:43:11.502Z,81.08
2018-03-25T17:46:28.109Z,81.15
2018-03-25T17:49:36.264Z,81.00
2018-03-25T17:52:45.461Z,81.23
2018-03-25T17:55:53.863Z,81.05
2018-03-25T17:59:05.164Z,81.15
2018-03-25T18:02:20.482Z,81.06
2018-03-25T18:05:31.117Z,81.18
2018-03-25T18:08:37.640Z,81.23
2018-03-25T18:11:43.251Z,81.12
2018-03-25T18:14:48.895Z,81.05
2018-03-25T18:17:55.487Z,81.17
2018-03-25T18:21:01.087Z,81.06
2018-03-25T18:24:07.482Z,80.76
2018-03-25T18:27:19.592Z,80.83
2018-03-25T18:30:38.833Z,81.15
2018-03-25T18:33:51.807Z,81.01
2018-03-25T18:37:05.839Z,81.21
2018-03-25T18:40:14.689Z,81.19
2018-03-25T18:43:28.945Z,81.43
2018-03-25T18:46:42.533Z,81.38
2018-03-25T18:49:50.787Z,81.37
2018-03-25T18:52:59.108Z,81.33
2018-03-25T18:56:07.498Z,81.18
2018-03-25T18:59:15.304Z,81.29
2018-03-25T19:02:23.468Z,81.61
2018-03-25T19:05:39.172Z,81.53
2018-03-25T19:08:47.969Z,81.70
2018-03-25T19:12:11.992Z,81.37
2018-03-25T19:15:21.121Z,81.25
2018-03-25T19:18:29.972Z,81.20
2018-03-25T19:21:40.413Z,81.31
2018-03-25T19:24:49.390Z,81.24
2018-03-25T19:28:00.992Z,81.27
2018-03-25T19:31:09.873Z,81.21
2018-03-25T19:34:21.328Z,81.23
2018-03-25T19:37:37.314Z,81.26
2018-03-25T19:40:56.117Z,81.32
2018-03-25T19:44:12.633Z,81.41
2018-03-25T19:47:22.462Z,81.56
2018-03-25T19:50:38.511Z,81.44
2018-03-25T19:54:04.781Z,81.46
2018-03-25T19:57:13.425Z,81.55
2018-03-25T20:00:18.953Z,81.63
2018-03-25T20:03:24.527Z,81.55
2018-03-25T20:06:30.083Z,81.57
2018-03-25T20:09:36.542Z,81.56
2018-03-25T20:12:44.330Z,81.57
2018-03-25T20:16:00.610Z,81.55
2018-03-25T20:19:23.178Z,81.67
2018-03-25T20:22:50.009Z,81.77
2018-03-25T20:26:21.755Z,81.77
2018-03-25T20:29:30.229Z,81.94
2018-03-25T20:32:36.239Z,81.92
2018-03-25T20:35:42.079Z,81.82
2018-03-25T20:38:47.634Z,82.00
2018-03-25T20:45:20.482Z,81.91
2018-03-25T20:48:34.636Z,82.09
2018-03-25T20:51:47.250Z,81.95
2018-03-25T20:54:57.832Z,81.91
2018-03-25T20:58:06.334Z,81.99
2018-03-25T21:01:14.592Z,81.98
2018-03-25T21:04:25.719Z,82.02
2018-03-25T21:07:34.204Z,81.99
2018-03-25T21:10:41.958Z,82.03
2018-03-25T21:13:49.748Z,82.04
2018-03-25T21:16:55.824Z,82.25
2018-03-25T21:20:03.134Z,82.50
2018-03-25T21:23:08.653Z,82.21
2018-03-25T21:26:14.238Z,82.24
2018-03-25T21:29:19.864Z,82.41
2018-03-25T21:32:25.389Z,82.62
2018-03-25T21:35:30.942Z,82.50
2018-03-25T21:38:36.613Z,82.40
2018-03-25T21:41:42.190Z,82.53
2018-03-25T21:44:47.756Z,82.53
2018-03-25T21:47:53.272Z,82.47
2018-03-25T21:50:58.817Z,82.62
2018-03-25T21:54:04.420Z,82.61
2018-03-25T21:57:09.999Z,82.48
2018-03-25T22:00:15.552Z,82.61
2018-03-25T22:03:20.870Z,82.57
2018-03-25T22:06:26.390Z,82.85
2018-03-25T22:09:31.953Z,82.73
2018-03-25T22:12:37.477Z,82.82
2018-03-25T22:15:43.141Z,82.72
2018-03-25T22:18:59.749Z,82.71
2018-03-25T22:22:05.317Z,82.82
2018-03-25T22:25:10.825Z,82.69
2018-03-25T22:28:16.401Z,82.80
2018-03-25T22:31:21.917Z,82.71
2018-03-25T22:34:27.464Z,82.86
2018-03-25T22:37:32.969Z,83.03
2018-03-25T22:40:38.537Z,83.00
2018-03-25T22:43:44.155Z,83.04
2018-03-25T22:46:49.726Z,82.94
2018-03-25T22:49:55.227Z,83.02
2018-03-25T22:53:00.797Z,83.16
2018-03-25T22:56:06.325Z,83.16
2018-03-25T22:59:11.894Z,83.22
2018-03-25T23:02:17.407Z,83.43
2018-03-25T23:05:22.972Z,83.13
2018-03-25T23:08:28.510Z,83.18
2018-03-25T23:11:34.104Z,83.35
2018-03-25T23:14:39.617Z,83.38
2018-03-25T23:17:45.178Z,83.44
2018-03-25T23:20:50.731Z,83.53
2018-03-25T23:23:56.373Z,83.24
2018-03-25T23:27:01.989Z,83.38
2018-03-25T23:30:07.206Z,83.38
2018-03-25T23:33:12.520Z,83.55
2018-03-25T23:36:18.094Z,83.56
2018-03-25T23:39:23.609Z,83.46
2018-03-25T23:42:29.158Z,83.72
2018-03-25T23:45:35.933Z,83.52
2018-03-25T23:48:41.437Z,83.64
2018-03-25T23:51:47.002Z,83.44
2018-03-25T23:54:52.513Z,83.56
2018-03-25T23:57:58.112Z,83.52
